sensor_id;sensor_type;location;lat;lon;timestamp;P1;durP1;ratioP1;P2;durP2;ratioP2
9914;SDS011;4996;48.746;9.174;2022-08-23T00:01:23;2.37;;;2.17;;
9914;SDS011;4996;48.746;9.174;2022-08-23T00:03:52;3.60;;;2.07;;
9914;SDS011;4996;48.746;9.174;2022-08-23T00:06:19;2.87;;;2.40;;
9914;SDS011;4996;48.746;9.174;2022-08-23T00:08:46;3.80;;;2.43;;
9914;SDS011;4996;48.746;9.174;2022-08-23T00:11:22;3.60;;;2.57;;
9914;SDS011;4996;48.746;9.174;2022-08-23T00:13:53;3.80;;;2.43;;
9914;SDS011;4996;48.746;9.174;2022-08-23T00:16:19;3.20;;;2.40;;
9914;SDS011;4996;48.746;9.174;2022-08-23T00:18:45;2.60;;;2.40;;
9914;SDS011;4996;48.746;9.174;2022-08-23T00:21:10;5.47;;;3.13;;
9914;SDS011;4996;48.746;9.174;2022-08-23T00:23:37;6.90;;;2.97;;
9914;SDS011;4996;48.746;9.174;2022-08-23T00:26:03;6.53;;;2.67;;
9914;SDS011;4996;48.746;9.174;2022-08-23T00:28:29;3.73;;;2.90;;
9914;SDS011;4996;48.746;9.174;2022-08-23T00:30:55;4.30;;;2.80;;
9914;SDS011;4996;48.746;9.174;2022-08-23T00:33:21;5.03;;;2.70;;
9914;SDS011;4996;48.746;9.174;2022-08-23T00:35:47;5.73;;;3.50;;
9914;SDS011;4996;48.746;9.174;2022-08-23T00:38:13;4.07;;;2.77;;
9914;SDS011;4996;48.746;9.174;2022-08-23T00:40:39;5.53;;;2.43;;
9914;SDS011;4996;48.746;9.174;2022-08-23T00:43:10;3.97;;;2.43;;
9914;SDS011;4996;48.746;9.174;2022-08-23T00:45:59;3.03;;;2.73;;
9914;SDS011;4996;48.746;9.174;2022-08-23T00:49:06;3.03;;;2.60;;
9914;SDS011;4996;48.746;9.174;2022-08-23T00:51:40;2.77;;;2.57;;
9914;SDS011;4996;48.746;9.174;2022-08-23T00:54:27;6.33;;;2.70;;
9914;SDS011;4996;48.746;9.174;2022-08-23T00:56:55;3.63;;;2.50;;
9914;SDS011;4996;48.746;9.174;2022-08-23T00:59:24;7.40;;;3.03;;
9914;SDS011;4996;48.746;9.174;2022-08-23T01:01:49;3.27;;;2.17;;
9914;SDS011;4996;48.746;9.174;2022-08-23T01:04:15;2.97;;;2.67;;
9914;SDS011;4996;48.746;9.174;2022-08-23T01:06:47;4.10;;;2.77;;
9914;SDS011;4996;48.746;9.174;2022-08-23T01:09:19;5.30;;;2.47;;
9914;SDS011;4996;48.746;9.174;2022-08-23T01:11:57;2.77;;;2.57;;
9914;SDS011;4996;48.746;9.174;2022-08-23T01:14:31;3.97;;;2.60;;
9914;SDS011;4996;48.746;9.174;2022-08-23T01:17:19;2.37;;;2.10;;
9914;SDS011;4996;48.746;9.174;2022-08-23T01:19:50;2.63;;;2.30;;
9914;SDS011;4996;48.746;9.174;2022-08-23T01:22:27;3.50;;;2.43;;
9914;SDS011;4996;48.746;9.174;2022-08-23T01:24:59;2.80;;;2.33;;
9914;SDS011;4996;48.746;9.174;2022-08-23T01:27:26;3.90;;;2.90;;
9914;SDS011;4996;48.746;9.174;2022-08-23T01:29:52;4.63;;;2.63;;
9914;SDS011;4996;48.746;9.174;2022-08-23T01:32:18;3.90;;;2.60;;
9914;SDS011;4996;48.746;9.174;2022-08-23T01:34:44;4.37;;;2.10;;
9914;SDS011;4996;48.746;9.174;2022-08-23T01:37:09;4.50;;;2.80;;
9914;SDS011;4996;48.746;9.174;2022-08-23T01:39:35;5.93;;;2.30;;
9914;SDS011;4996;48.746;9.174;2022-08-23T01:42:01;2.90;;;2.30;;
9914;SDS011;4996;48.746;9.174;2022-08-23T01:44:27;4.07;;;2.80;;
9914;SDS011;4996;48.746;9.174;2022-08-23T01:46:53;4.43;;;2.57;;
9914;SDS011;4996;48.746;9.174;2022-08-23T01:49:18;2.90;;;2.70;;
9914;SDS011;4996;48.746;9.174;2022-08-23T01:51:44;4.33;;;2.50;;
9914;SDS011;4996;48.746;9.174;2022-08-23T01:54:10;3.77;;;2.83;;
9914;SDS011;4996;48.746;9.174;2022-08-23T01:56:36;7.47;;;2.60;;
9914;SDS011;4996;48.746;9.174;2022-08-23T01:59:03;4.10;;;2.90;;
9914;SDS011;4996;48.746;9.174;2022-08-23T02:01:30;6.30;;;2.60;;
9914;SDS011;4996;48.746;9.174;2022-08-23T02:03:55;3.73;;;2.47;;
9914;SDS011;4996;48.746;9.174;2022-08-23T02:06:21;4.93;;;2.97;;
9914;SDS011;4996;48.746;9.174;2022-08-23T02:08:46;2.80;;;2.40;;
9914;SDS011;4996;48.746;9.174;2022-08-23T02:11:33;5.30;;;2.67;;
9914;SDS011;4996;48.746;9.174;2022-08-23T02:14:02;5.97;;;2.93;;
9914;SDS011;4996;48.746;9.174;2022-08-23T02:16:32;4.27;;;3.17;;
9914;SDS011;4996;48.746;9.174;2022-08-23T02:19:00;2.80;;;2.60;;
9914;SDS011;4996;48.746;9.174;2022-08-23T02:21:27;4.23;;;3.00;;
9914;SDS011;4996;48.746;9.174;2022-08-23T02:23:55;4.33;;;2.63;;
9914;SDS011;4996;48.746;9.174;2022-08-23T02:26:22;3.90;;;2.83;;
9914;SDS011;4996;48.746;9.174;2022-08-23T02:28:51;5.87;;;3.27;;
9914;SDS011;4996;48.746;9.174;2022-08-23T02:31:18;4.80;;;2.53;;
9914;SDS011;4996;48.746;9.174;2022-08-23T02:33:44;3.07;;;2.10;;
9914;SDS011;4996;48.746;9.174;2022-08-23T02:36:10;3.60;;;2.70;;
9914;SDS011;4996;48.746;9.174;2022-08-23T02:38:37;5.53;;;3.17;;
9914;SDS011;4996;48.746;9.174;2022-08-23T02:41:03;4.00;;;2.70;;
9914;SDS011;4996;48.746;9.174;2022-08-23T02:43:28;5.07;;;2.90;;
9914;SDS011;4996;48.746;9.174;2022-08-23T02:45:54;4.47;;;3.17;;
9914;SDS011;4996;48.746;9.174;2022-08-23T02:48:19;3.33;;;2.60;;
9914;SDS011;4996;48.746;9.174;2022-08-23T02:50:46;3.53;;;3.20;;
9914;SDS011;4996;48.746;9.174;2022-08-23T02:53:13;4.80;;;2.80;;
9914;SDS011;4996;48.746;9.174;2022-08-23T02:55:39;3.87;;;3.10;;
9914;SDS011;4996;48.746;9.174;2022-08-23T02:58:08;4.97;;;3.00;;
9914;SDS011;4996;48.746;9.174;2022-08-23T03:00:33;10.20;;;2.63;;
9914;SDS011;4996;48.746;9.174;2022-08-23T03:02:59;4.00;;;3.00;;
9914;SDS011;4996;48.746;9.174;2022-08-23T03:05:24;3.87;;;2.87;;
9914;SDS011;4996;48.746;9.174;2022-08-23T03:07:50;3.80;;;3.17;;
9914;SDS011;4996;48.746;9.174;2022-08-23T03:10:16;4.23;;;3.17;;
9914;SDS011;4996;48.746;9.174;2022-08-23T03:12:41;4.20;;;2.70;;
9914;SDS011;4996;48.746;9.174;2022-08-23T03:15:07;7.47;;;3.30;;
9914;SDS011;4996;48.746;9.174;2022-08-23T03:17:33;3.37;;;3.07;;
9914;SDS011;4996;48.746;9.174;2022-08-23T03:19:59;4.70;;;3.37;;
9914;SDS011;4996;48.746;9.174;2022-08-23T03:22:25;3.10;;;2.90;;
9914;SDS011;4996;48.746;9.174;2022-08-23T03:24:50;3.10;;;2.80;;
9914;SDS011;4996;48.746;9.174;2022-08-23T03:27:16;3.70;;;2.57;;
9914;SDS011;4996;48.746;9.174;2022-08-23T03:29:41;4.20;;;3.13;;
9914;SDS011;4996;48.746;9.174;2022-08-23T03:32:07;2.70;;;2.50;;
9914;SDS011;4996;48.746;9.174;2022-08-23T03:34:33;8.50;;;3.40;;
9914;SDS011;4996;48.746;9.174;2022-08-23T03:36:58;5.03;;;3.17;;
9914;SDS011;4996;48.746;9.174;2022-08-23T03:39:24;3.87;;;3.00;;
9914;SDS011;4996;48.746;9.174;2022-08-23T03:41:50;3.83;;;3.07;;
9914;SDS011;4996;48.746;9.174;2022-08-23T03:44:15;3.30;;;3.00;;
9914;SDS011;4996;48.746;9.174;2022-08-23T03:46:41;3.20;;;2.60;;
9914;SDS011;4996;48.746;9.174;2022-08-23T03:49:06;4.30;;;3.40;;
9914;SDS011;4996;48.746;9.174;2022-08-23T03:51:32;5.40;;;3.40;;
9914;SDS011;4996;48.746;9.174;2022-08-23T03:53:58;3.10;;;2.80;;
9914;SDS011;4996;48.746;9.174;2022-08-23T03:56:26;3.83;;;2.97;;
9914;SDS011;4996;48.746;9.174;2022-08-23T03:58:54;3.43;;;3.10;;
9914;SDS011;4996;48.746;9.174;2022-08-23T04:01:20;5.30;;;3.40;;
9914;SDS011;4996;48.746;9.174;2022-08-23T04:03:47;4.77;;;2.73;;
9914;SDS011;4996;48.746;9.174;2022-08-23T04:06:13;3.20;;;2.90;;
9914;SDS011;4996;48.746;9.174;2022-08-23T04:08:39;3.00;;;2.57;;
9914;SDS011;4996;48.746;9.174;2022-08-23T04:11:06;7.00;;;3.80;;
9914;SDS011;4996;48.746;9.174;2022-08-23T04:13:31;6.83;;;3.43;;
9914;SDS011;4996;48.746;9.174;2022-08-23T04:15:57;3.70;;;3.40;;
9914;SDS011;4996;48.746;9.174;2022-08-23T04:18:26;3.03;;;2.83;;
9914;SDS011;4996;48.746;9.174;2022-08-23T04:20:54;4.00;;;2.73;;
9914;SDS011;4996;48.746;9.174;2022-08-23T04:23:19;3.60;;;2.77;;
9914;SDS011;4996;48.746;9.174;2022-08-23T04:25:45;4.57;;;3.90;;
9914;SDS011;4996;48.746;9.174;2022-08-23T04:28:11;3.93;;;3.53;;
9914;SDS011;4996;48.746;9.174;2022-08-23T04:30:36;4.83;;;3.40;;
9914;SDS011;4996;48.746;9.174;2022-08-23T04:33:02;2.87;;;2.67;;
9914;SDS011;4996;48.746;9.174;2022-08-23T04:35:28;4.03;;;3.23;;
9914;SDS011;4996;48.746;9.174;2022-08-23T04:37:53;4.03;;;3.40;;
9914;SDS011;4996;48.746;9.174;2022-08-23T04:40:19;6.40;;;3.40;;
9914;SDS011;4996;48.746;9.174;2022-08-23T04:43:03;2.83;;;2.63;;
9914;SDS011;4996;48.746;9.174;2022-08-23T04:45:30;10.17;;;2.50;;
9914;SDS011;4996;48.746;9.174;2022-08-23T04:47:56;6.53;;;3.20;;
9914;SDS011;4996;48.746;9.174;2022-08-23T04:50:22;6.73;;;3.20;;
9914;SDS011;4996;48.746;9.174;2022-08-23T04:52:48;7.10;;;3.20;;
9914;SDS011;4996;48.746;9.174;2022-08-23T04:55:13;4.40;;;3.10;;
9914;SDS011;4996;48.746;9.174;2022-08-23T04:57:39;7.33;;;3.33;;
9914;SDS011;4996;48.746;9.174;2022-08-23T05:00:06;3.83;;;3.47;;
9914;SDS011;4996;48.746;9.174;2022-08-23T05:02:35;4.53;;;2.87;;
9914;SDS011;4996;48.746;9.174;2022-08-23T05:05:02;3.83;;;3.43;;
9914;SDS011;4996;48.746;9.174;2022-08-23T05:07:28;3.20;;;2.90;;
9914;SDS011;4996;48.746;9.174;2022-08-23T05:09:55;10.47;;;3.23;;
9914;SDS011;4996;48.746;9.174;2022-08-23T05:12:20;3.13;;;2.87;;
9914;SDS011;4996;48.746;9.174;2022-08-23T05:14:46;7.70;;;5.20;;
9914;SDS011;4996;48.746;9.174;2022-08-23T05:17:12;5.63;;;3.13;;
9914;SDS011;4996;48.746;9.174;2022-08-23T05:19:37;4.70;;;2.77;;
9914;SDS011;4996;48.746;9.174;2022-08-23T05:22:03;3.73;;;2.73;;
9914;SDS011;4996;48.746;9.174;2022-08-23T05:24:28;3.30;;;2.30;;
9914;SDS011;4996;48.746;9.174;2022-08-23T05:26:54;3.73;;;3.17;;
9914;SDS011;4996;48.746;9.174;2022-08-23T05:29:19;4.03;;;2.83;;
9914;SDS011;4996;48.746;9.174;2022-08-23T05:31:45;3.60;;;2.80;;
9914;SDS011;4996;48.746;9.174;2022-08-23T05:34:10;3.80;;;3.10;;
9914;SDS011;4996;48.746;9.174;2022-08-23T05:36:36;4.73;;;3.10;;
9914;SDS011;4996;48.746;9.174;2022-08-23T05:39:02;7.70;;;2.77;;
9914;SDS011;4996;48.746;9.174;2022-08-23T05:41:29;4.83;;;2.90;;
9914;SDS011;4996;48.746;9.174;2022-08-23T05:43:55;2.60;;;2.40;;
9914;SDS011;4996;48.746;9.174;2022-08-23T05:46:21;2.93;;;2.63;;
9914;SDS011;4996;48.746;9.174;2022-08-23T05:48:48;4.93;;;3.00;;
9914;SDS011;4996;48.746;9.174;2022-08-23T05:53:42;6.57;;;2.83;;
9914;SDS011;4996;48.746;9.174;2022-08-23T05:56:19;5.27;;;2.90;;
9914;SDS011;4996;48.746;9.174;2022-08-23T05:58:46;3.33;;;2.40;;
9914;SDS011;4996;48.746;9.174;2022-08-23T06:01:12;4.70;;;2.97;;
9914;SDS011;4996;48.746;9.174;2022-08-23T06:03:39;6.27;;;2.83;;
9914;SDS011;4996;48.746;9.174;2022-08-23T06:06:06;5.40;;;3.13;;
9914;SDS011;4996;48.746;9.174;2022-08-23T06:08:33;3.73;;;3.40;;
9914;SDS011;4996;48.746;9.174;2022-08-23T06:11:02;3.40;;;2.80;;
9914;SDS011;4996;48.746;9.174;2022-08-23T06:13:31;3.17;;;2.90;;
9914;SDS011;4996;48.746;9.174;2022-08-23T06:15:57;3.10;;;2.80;;
9914;SDS011;4996;48.746;9.174;2022-08-23T06:18:23;5.07;;;3.57;;
9914;SDS011;4996;48.746;9.174;2022-08-23T06:21:03;6.33;;;2.80;;
9914;SDS011;4996;48.746;9.174;2022-08-23T06:23:33;8.00;;;3.10;;
9914;SDS011;4996;48.746;9.174;2022-08-23T06:26:00;6.90;;;3.27;;
9914;SDS011;4996;48.746;9.174;2022-08-23T06:28:32;5.43;;;3.37;;
9914;SDS011;4996;48.746;9.174;2022-08-23T06:30:58;6.43;;;3.17;;
9914;SDS011;4996;48.746;9.174;2022-08-23T06:33:23;9.10;;;2.77;;
9914;SDS011;4996;48.746;9.174;2022-08-23T06:35:59;7.00;;;3.50;;
9914;SDS011;4996;48.746;9.174;2022-08-23T06:38:25;6.47;;;3.00;;
9914;SDS011;4996;48.746;9.174;2022-08-23T06:40:51;5.23;;;3.10;;
9914;SDS011;4996;48.746;9.174;2022-08-23T06:43:22;9.40;;;3.30;;
9914;SDS011;4996;48.746;9.174;2022-08-23T06:45:48;9.43;;;3.87;;
9914;SDS011;4996;48.746;9.174;2022-08-23T06:48:14;8.17;;;3.40;;
9914;SDS011;4996;48.746;9.174;2022-08-23T06:50:39;6.23;;;4.30;;
9914;SDS011;4996;48.746;9.174;2022-08-23T06:53:05;9.10;;;3.40;;
9914;SDS011;4996;48.746;9.174;2022-08-23T06:55:30;7.60;;;2.73;;
9914;SDS011;4996;48.746;9.174;2022-08-23T06:57:56;5.27;;;3.40;;
9914;SDS011;4996;48.746;9.174;2022-08-23T07:00:21;7.63;;;3.57;;
9914;SDS011;4996;48.746;9.174;2022-08-23T07:02:47;8.50;;;4.17;;
9914;SDS011;4996;48.746;9.174;2022-08-23T07:05:13;5.57;;;3.70;;
9914;SDS011;4996;48.746;9.174;2022-08-23T07:07:39;4.30;;;3.53;;
9914;SDS011;4996;48.746;9.174;2022-08-23T07:10:04;5.10;;;3.37;;
9914;SDS011;4996;48.746;9.174;2022-08-23T07:12:31;5.77;;;3.93;;
9914;SDS011;4996;48.746;9.174;2022-08-23T07:14:56;6.03;;;4.00;;
9914;SDS011;4996;48.746;9.174;2022-08-23T07:17:21;13.83;;;4.20;;
9914;SDS011;4996;48.746;9.174;2022-08-23T07:19:47;6.10;;;3.43;;
9914;SDS011;4996;48.746;9.174;2022-08-23T07:22:13;14.73;;;4.60;;
9914;SDS011;4996;48.746;9.174;2022-08-23T07:24:38;6.33;;;3.50;;
9914;SDS011;4996;48.746;9.174;2022-08-23T07:27:04;5.90;;;3.40;;
9914;SDS011;4996;48.746;9.174;2022-08-23T07:29:33;6.30;;;3.67;;
9914;SDS011;4996;48.746;9.174;2022-08-23T07:32:03;8.00;;;3.47;;
9914;SDS011;4996;48.746;9.174;2022-08-23T07:34:29;6.10;;;3.43;;
9914;SDS011;4996;48.746;9.174;2022-08-23T07:36:55;5.13;;;3.80;;
9914;SDS011;4996;48.746;9.174;2022-08-23T07:39:21;6.07;;;3.47;;
9914;SDS011;4996;48.746;9.174;2022-08-23T07:41:47;7.80;;;3.40;;
9914;SDS011;4996;48.746;9.174;2022-08-23T07:44:13;6.00;;;3.07;;
9914;SDS011;4996;48.746;9.174;2022-08-23T07:46:40;4.30;;;2.83;;
9914;SDS011;4996;48.746;9.174;2022-08-23T07:49:08;9.67;;;3.87;;
9914;SDS011;4996;48.746;9.174;2022-08-23T07:51:35;5.20;;;3.17;;
9914;SDS011;4996;48.746;9.174;2022-08-23T07:54:03;6.63;;;3.10;;
9914;SDS011;4996;48.746;9.174;2022-08-23T07:56:30;5.03;;;3.03;;
9914;SDS011;4996;48.746;9.174;2022-08-23T07:58:56;11.13;;;3.10;;
9914;SDS011;4996;48.746;9.174;2022-08-23T08:01:23;5.50;;;3.40;;
9914;SDS011;4996;48.746;9.174;2022-08-23T08:03:52;5.00;;;2.77;;
9914;SDS011;4996;48.746;9.174;2022-08-23T08:06:21;4.90;;;3.37;;
9914;SDS011;4996;48.746;9.174;2022-08-23T08:08:52;7.60;;;3.10;;
9914;SDS011;4996;48.746;9.174;2022-08-23T08:11:19;6.80;;;2.80;;
9914;SDS011;4996;48.746;9.174;2022-08-23T08:13:48;7.00;;;3.47;;
9914;SDS011;4996;48.746;9.174;2022-08-23T08:16:18;6.27;;;3.40;;
9914;SDS011;4996;48.746;9.174;2022-08-23T08:18:44;8.30;;;3.63;;
9914;SDS011;4996;48.746;9.174;2022-08-23T08:21:12;3.00;;;2.40;;
9914;SDS011;4996;48.746;9.174;2022-08-23T08:23:38;7.53;;;2.80;;
9914;SDS011;4996;48.746;9.174;2022-08-23T08:26:05;3.90;;;2.90;;
9914;SDS011;4996;48.746;9.174;2022-08-23T08:28:33;2.63;;;2.33;;
9914;SDS011;4996;48.746;9.174;2022-08-23T08:30:59;5.30;;;2.63;;
9914;SDS011;4996;48.746;9.174;2022-08-23T08:33:26;9.87;;;3.00;;
9914;SDS011;4996;48.746;9.174;2022-08-23T08:35:53;3.10;;;2.50;;
9914;SDS011;4996;48.746;9.174;2022-08-23T08:38:18;7.80;;;3.40;;
9914;SDS011;4996;48.746;9.174;2022-08-23T08:40:45;5.00;;;3.33;;
9914;SDS011;4996;48.746;9.174;2022-08-23T08:43:22;2.13;;;2.00;;
9914;SDS011;4996;48.746;9.174;2022-08-23T08:46:04;7.23;;;2.60;;
9914;SDS011;4996;48.746;9.174;2022-08-23T08:48:44;3.20;;;2.90;;
9914;SDS011;4996;48.746;9.174;2022-08-23T08:53:53;3.27;;;2.50;;
9914;SDS011;4996;48.746;9.174;2022-08-23T08:56:22;2.97;;;2.57;;
9914;SDS011;4996;48.746;9.174;2022-08-23T08:58:53;7.17;;;2.40;;
9914;SDS011;4996;48.746;9.174;2022-08-23T09:01:22;4.57;;;2.77;;
9914;SDS011;4996;48.746;9.174;2022-08-23T09:03:50;3.00;;;1.90;;
9914;SDS011;4996;48.746;9.174;2022-08-23T09:17:39;7.47;;;2.70;;
9914;SDS011;4996;48.746;9.174;2022-08-23T09:20:08;3.20;;;2.37;;
9914;SDS011;4996;48.746;9.174;2022-08-23T09:22:38;2.53;;;2.33;;
9914;SDS011;4996;48.746;9.174;2022-08-23T09:25:07;3.77;;;2.17;;
9914;SDS011;4996;48.746;9.174;2022-08-23T09:27:38;3.63;;;2.20;;
9914;SDS011;4996;48.746;9.174;2022-08-23T09:30:07;3.60;;;2.00;;
9914;SDS011;4996;48.746;9.174;2022-08-23T09:32:35;2.27;;;1.60;;
9914;SDS011;4996;48.746;9.174;2022-08-23T09:37:44;2.40;;;2.10;;
9914;SDS011;4996;48.746;9.174;2022-08-23T09:40:18;1.60;;;1.50;;
9914;SDS011;4996;48.746;9.174;2022-08-23T09:43:11;5.87;;;2.10;;
9914;SDS011;4996;48.746;9.174;2022-08-23T09:45:40;5.93;;;2.17;;
9914;SDS011;4996;48.746;9.174;2022-08-23T09:53:34;1.90;;;1.80;;
9914;SDS011;4996;48.746;9.174;2022-08-23T09:56:11;2.70;;;2.10;;
9914;SDS011;4996;48.746;9.174;2022-08-23T09:58:41;5.47;;;2.23;;
9914;SDS011;4996;48.746;9.174;2022-08-23T10:01:15;2.67;;;2.20;;
9914;SDS011;4996;48.746;9.174;2022-08-23T10:03:44;4.90;;;1.90;;
9914;SDS011;4996;48.746;9.174;2022-08-23T10:06:12;2.93;;;2.00;;
9914;SDS011;4996;48.746;9.174;2022-08-23T10:08:53;5.50;;;2.00;;
9914;SDS011;4996;48.746;9.174;2022-08-23T10:11:24;2.30;;;1.87;;
9914;SDS011;4996;48.746;9.174;2022-08-23T10:13:53;2.03;;;1.47;;
9914;SDS011;4996;48.746;9.174;2022-08-23T10:19:18;7.00;;;1.90;;
9914;SDS011;4996;48.746;9.174;2022-08-23T10:22:13;1.40;;;1.30;;
9914;SDS011;4996;48.746;9.174;2022-08-23T10:27:11;2.50;;;2.00;;
9914;SDS011;4996;48.746;9.174;2022-08-23T10:30:17;5.50;;;1.73;;
9914;SDS011;4996;48.746;9.174;2022-08-23T10:32:50;4.03;;;2.10;;
9914;SDS011;4996;48.746;9.174;2022-08-23T10:35:29;5.80;;;2.03;;
9914;SDS011;4996;48.746;9.174;2022-08-23T10:46:01;3.40;;;1.90;;
9914;SDS011;4996;48.746;9.174;2022-08-23T10:48:33;3.80;;;1.90;;
9914;SDS011;4996;48.746;9.174;2022-08-23T10:51:15;6.93;;;2.83;;
9914;SDS011;4996;48.746;9.174;2022-08-23T10:56:21;2.37;;;1.80;;
9914;SDS011;4996;48.746;9.174;2022-08-23T11:01:52;3.53;;;1.73;;
9914;SDS011;4996;48.746;9.174;2022-08-23T11:04:30;4.30;;;1.70;;
9914;SDS011;4996;48.746;9.174;2022-08-23T11:07:15;9.63;;;2.13;;
9914;SDS011;4996;48.746;9.174;2022-08-23T11:13:16;3.93;;;1.90;;
9914;SDS011;4996;48.746;9.174;2022-08-23T11:20:56;5.97;;;1.83;;
9914;SDS011;4996;48.746;9.174;2022-08-23T11:23:44;1.70;;;1.60;;
9914;SDS011;4996;48.746;9.174;2022-08-23T11:28:46;2.53;;;1.80;;
9914;SDS011;4996;48.746;9.174;2022-08-23T11:31:19;2.23;;;2.10;;
9914;SDS011;4996;48.746;9.174;2022-08-23T11:33:57;2.97;;;2.07;;
9914;SDS011;4996;48.746;9.174;2022-08-23T11:36:33;3.43;;;1.83;;
9914;SDS011;4996;48.746;9.174;2022-08-23T11:39:05;1.57;;;1.37;;
9914;SDS011;4996;48.746;9.174;2022-08-23T11:41:34;2.20;;;2.00;;
9914;SDS011;4996;48.746;9.174;2022-08-23T11:44:21;4.77;;;2.37;;
9914;SDS011;4996;48.746;9.174;2022-08-23T11:46:57;1.50;;;1.40;;
9914;SDS011;4996;48.746;9.174;2022-08-23T12:06:36;2.20;;;2.00;;
9914;SDS011;4996;48.746;9.174;2022-08-23T12:09:04;3.10;;;1.87;;
9914;SDS011;4996;48.746;9.174;2022-08-23T12:16:58;4.90;;;3.10;;
9914;SDS011;4996;48.746;9.174;2022-08-23T12:19:33;3.10;;;2.13;;
9914;SDS011;4996;48.746;9.174;2022-08-23T12:22:23;2.33;;;2.13;;
9914;SDS011;4996;48.746;9.174;2022-08-23T12:24:53;3.33;;;1.90;;
9914;SDS011;4996;48.746;9.174;2022-08-23T12:27:27;2.13;;;1.93;;
9914;SDS011;4996;48.746;9.174;2022-08-23T12:32:45;2.20;;;2.00;;
9914;SDS011;4996;48.746;9.174;2022-08-23T12:35:39;6.17;;;2.03;;
9914;SDS011;4996;48.746;9.174;2022-08-23T12:40:52;2.27;;;1.97;;
9914;SDS011;4996;48.746;9.174;2022-08-23T12:43:19;2.73;;;1.67;;
9914;SDS011;4996;48.746;9.174;2022-08-23T12:45:51;3.10;;;2.50;;
9914;SDS011;4996;48.746;9.174;2022-08-23T12:48:20;3.00;;;1.80;;
9914;SDS011;4996;48.746;9.174;2022-08-23T12:50:54;2.97;;;2.03;;
9914;SDS011;4996;48.746;9.174;2022-08-23T12:56:07;5.67;;;2.17;;
9914;SDS011;4996;48.746;9.174;2022-08-23T12:58:44;2.93;;;2.63;;
9914;SDS011;4996;48.746;9.174;2022-08-23T13:01:25;1.93;;;1.83;;
9914;SDS011;4996;48.746;9.174;2022-08-23T13:03:54;3.27;;;2.03;;
9914;SDS011;4996;48.746;9.174;2022-08-23T13:06:24;3.53;;;1.70;;
9914;SDS011;4996;48.746;9.174;2022-08-23T13:09:04;3.90;;;2.10;;
9914;SDS011;4996;48.746;9.174;2022-08-23T13:11:43;1.67;;;1.50;;
9914;SDS011;4996;48.746;9.174;2022-08-23T13:19:57;3.70;;;2.00;;
9914;SDS011;4996;48.746;9.174;2022-08-23T13:23:20;2.80;;;2.10;;
9914;SDS011;4996;48.746;9.174;2022-08-23T13:25:52;2.60;;;2.13;;
9914;SDS011;4996;48.746;9.174;2022-08-23T13:30:59;1.97;;;1.70;;
9914;SDS011;4996;48.746;9.174;2022-08-23T13:33:27;1.80;;;1.70;;
9914;SDS011;4996;48.746;9.174;2022-08-23T13:36:06;2.90;;;2.03;;
9914;SDS011;4996;48.746;9.174;2022-08-23T13:38:36;3.20;;;2.03;;
9914;SDS011;4996;48.746;9.174;2022-08-23T13:48:47;3.80;;;2.17;;
9914;SDS011;4996;48.746;9.174;2022-08-23T13:54:00;3.53;;;2.53;;
9914;SDS011;4996;48.746;9.174;2022-08-23T13:56:32;4.03;;;2.30;;
9914;SDS011;4996;48.746;9.174;2022-08-23T13:59:06;4.37;;;2.27;;
9914;SDS011;4996;48.746;9.174;2022-08-23T14:01:48;3.60;;;2.40;;
9914;SDS011;4996;48.746;9.174;2022-08-23T14:04:14;2.60;;;1.90;;
9914;SDS011;4996;48.746;9.174;2022-08-23T14:06:40;3.63;;;1.90;;
9914;SDS011;4996;48.746;9.174;2022-08-23T14:09:05;7.30;;;1.90;;
9914;SDS011;4996;48.746;9.174;2022-08-23T14:11:31;2.03;;;1.70;;
9914;SDS011;4996;48.746;9.174;2022-08-23T14:13:57;2.67;;;1.87;;
9914;SDS011;4996;48.746;9.174;2022-08-23T14:16:25;2.30;;;2.03;;
9914;SDS011;4996;48.746;9.174;2022-08-23T14:18:53;3.10;;;2.30;;
9914;SDS011;4996;48.746;9.174;2022-08-23T14:21:19;2.37;;;2.17;;
9914;SDS011;4996;48.746;9.174;2022-08-23T14:23:45;2.37;;;2.00;;
9914;SDS011;4996;48.746;9.174;2022-08-23T14:26:13;4.90;;;2.70;;
9914;SDS011;4996;48.746;9.174;2022-08-23T14:28:41;3.10;;;2.00;;
9914;SDS011;4996;48.746;9.174;2022-08-23T14:31:08;2.50;;;2.30;;
9914;SDS011;4996;48.746;9.174;2022-08-23T14:33:34;2.40;;;2.20;;
9914;SDS011;4996;48.746;9.174;2022-08-23T14:36:00;2.87;;;1.93;;
9914;SDS011;4996;48.746;9.174;2022-08-23T14:38:26;5.20;;;2.50;;
9914;SDS011;4996;48.746;9.174;2022-08-23T14:40:53;2.80;;;2.17;;
9914;SDS011;4996;48.746;9.174;2022-08-23T14:43:24;5.73;;;2.00;;
9914;SDS011;4996;48.746;9.174;2022-08-23T14:45:51;3.67;;;2.43;;
9914;SDS011;4996;48.746;9.174;2022-08-23T14:48:16;2.70;;;2.23;;
9914;SDS011;4996;48.746;9.174;2022-08-23T14:50:43;2.23;;;1.90;;
9914;SDS011;4996;48.746;9.174;2022-08-23T14:53:10;5.10;;;2.47;;
9914;SDS011;4996;48.746;9.174;2022-08-23T14:55:38;3.97;;;2.40;;
9914;SDS011;4996;48.746;9.174;2022-08-23T14:58:04;2.90;;;2.50;;
9914;SDS011;4996;48.746;9.174;2022-08-23T15:00:31;2.17;;;1.93;;
9914;SDS011;4996;48.746;9.174;2022-08-23T15:03:00;2.07;;;1.87;;
9914;SDS011;4996;48.746;9.174;2022-08-23T15:05:27;5.80;;;2.23;;
9914;SDS011;4996;48.746;9.174;2022-08-23T15:07:53;2.03;;;1.70;;
9914;SDS011;4996;48.746;9.174;2022-08-23T15:10:19;2.50;;;2.27;;
9914;SDS011;4996;48.746;9.174;2022-08-23T15:12:45;2.30;;;1.97;;
9914;SDS011;4996;48.746;9.174;2022-08-23T15:15:12;2.40;;;2.03;;
9914;SDS011;4996;48.746;9.174;2022-08-23T15:17:47;2.93;;;2.50;;
9914;SDS011;4996;48.746;9.174;2022-08-23T15:20:17;2.83;;;2.23;;
9914;SDS011;4996;48.746;9.174;2022-08-23T15:22:44;3.20;;;2.10;;
9914;SDS011;4996;48.746;9.174;2022-08-23T15:25:09;2.87;;;2.07;;
9914;SDS011;4996;48.746;9.174;2022-08-23T15:27:35;2.37;;;2.00;;
9914;SDS011;4996;48.746;9.174;2022-08-23T15:30:00;2.60;;;2.13;;
9914;SDS011;4996;48.746;9.174;2022-08-23T15:32:26;3.23;;;2.20;;
9914;SDS011;4996;48.746;9.174;2022-08-23T15:34:52;3.83;;;2.07;;
9914;SDS011;4996;48.746;9.174;2022-08-23T15:37:18;3.00;;;2.57;;
9914;SDS011;4996;48.746;9.174;2022-08-23T15:39:45;2.90;;;2.13;;
9914;SDS011;4996;48.746;9.174;2022-08-23T15:42:10;4.00;;;2.40;;
9914;SDS011;4996;48.746;9.174;2022-08-23T15:44:36;5.93;;;2.60;;
9914;SDS011;4996;48.746;9.174;2022-08-23T15:47:02;2.13;;;1.93;;
9914;SDS011;4996;48.746;9.174;2022-08-23T15:49:30;4.37;;;2.50;;
9914;SDS011;4996;48.746;9.174;2022-08-23T15:51:58;6.27;;;2.07;;
9914;SDS011;4996;48.746;9.174;2022-08-23T15:54:23;5.63;;;2.30;;
9914;SDS011;4996;48.746;9.174;2022-08-23T15:56:49;2.50;;;2.10;;
9914;SDS011;4996;48.746;9.174;2022-08-23T15:59:17;3.43;;;2.30;;
9914;SDS011;4996;48.746;9.174;2022-08-23T16:01:44;2.67;;;2.07;;
9914;SDS011;4996;48.746;9.174;2022-08-23T16:04:10;4.70;;;2.83;;
9914;SDS011;4996;48.746;9.174;2022-08-23T16:06:36;2.43;;;2.10;;
9914;SDS011;4996;48.746;9.174;2022-08-23T16:09:04;4.40;;;1.97;;
9914;SDS011;4996;48.746;9.174;2022-08-23T16:11:31;3.50;;;2.40;;
9914;SDS011;4996;48.746;9.174;2022-08-23T16:13:57;3.13;;;1.80;;
9914;SDS011;4996;48.746;9.174;2022-08-23T16:16:24;2.63;;;2.00;;
9914;SDS011;4996;48.746;9.174;2022-08-23T16:18:53;2.70;;;2.20;;
9914;SDS011;4996;48.746;9.174;2022-08-23T16:21:19;3.87;;;2.40;;
9914;SDS011;4996;48.746;9.174;2022-08-23T16:23:46;2.67;;;2.47;;
9914;SDS011;4996;48.746;9.174;2022-08-23T16:26:16;2.60;;;1.90;;
9914;SDS011;4996;48.746;9.174;2022-08-23T16:28:45;8.27;;;1.80;;
9914;SDS011;4996;48.746;9.174;2022-08-23T16:31:13;2.57;;;2.33;;
9914;SDS011;4996;48.746;9.174;2022-08-23T16:33:39;2.30;;;2.10;;
9914;SDS011;4996;48.746;9.174;2022-08-23T16:36:06;2.57;;;2.23;;
9914;SDS011;4996;48.746;9.174;2022-08-23T16:38:32;5.83;;;2.47;;
9914;SDS011;4996;48.746;9.174;2022-08-23T16:40:59;4.80;;;2.43;;
9914;SDS011;4996;48.746;9.174;2022-08-23T16:43:24;6.03;;;2.90;;
9914;SDS011;4996;48.746;9.174;2022-08-23T16:45:50;2.17;;;1.87;;
9914;SDS011;4996;48.746;9.174;2022-08-23T16:48:15;5.97;;;2.20;;
9914;SDS011;4996;48.746;9.174;2022-08-23T16:50:41;3.30;;;2.00;;
9914;SDS011;4996;48.746;9.174;2022-08-23T16:53:07;3.20;;;2.37;;
9914;SDS011;4996;48.746;9.174;2022-08-23T16:55:33;2.63;;;2.37;;
9914;SDS011;4996;48.746;9.174;2022-08-23T16:57:59;2.43;;;2.10;;
9914;SDS011;4996;48.746;9.174;2022-08-23T17:00:25;2.87;;;1.90;;
9914;SDS011;4996;48.746;9.174;2022-08-23T17:02:51;7.47;;;2.70;;
9914;SDS011;4996;48.746;9.174;2022-08-23T17:05:17;3.23;;;2.50;;
9914;SDS011;4996;48.746;9.174;2022-08-23T17:07:43;2.20;;;2.00;;
9914;SDS011;4996;48.746;9.174;2022-08-23T17:10:10;2.60;;;2.37;;